createdAt,value
2023-04-18T03:59:15.473Z,1021.61
2023-04-18T04:00:15.394Z,1021.58
2023-04-18T04:01:15.392Z,1021.61
2023-04-18T04:02:15.464Z,1021.62
2023-04-18T04:03:15.494Z,1021.64
2023-04-18T04:04:15.916Z,1021.65
2023-04-18T04:05:15.387Z,1021.63
2023-04-18T04:06:15.397Z,1021.69
2023-04-18T04:07:15.345Z,1021.64
2023-04-18T04:08:15.334Z,1021.72
2023-04-18T04:09:15.339Z,1021.73
2023-04-18T04:10:15.325Z,1021.72
2023-04-18T04:11:15.318Z,1021.68
2023-04-18T04:12:15.316Z,1021.72
2023-04-18T04:13:15.320Z,1021.73
2023-04-18T04:14:15.583Z,1021.75
2023-04-18T04:15:15.328Z,1021.72
2023-04-18T04:16:15.378Z,1021.79
2023-04-18T04:17:15.317Z,1021.78
2023-04-18T04:18:15.309Z,1021.76
2023-04-18T04:19:15.313Z,1021.77
2023-04-18T04:20:15.278Z,1021.75
2023-04-18T04:21:15.294Z,1021.76
2023-04-18T04:22:15.320Z,1021.76
2023-04-18T04:23:15.331Z,1021.77
2023-04-18T04:24:15.656Z,1021.76
2023-04-18T04:25:15.275Z,1021.80
2023-04-18T04:26:15.292Z,1021.78
2023-04-18T04:27:15.258Z,1021.80
2023-04-18T04:28:15.249Z,1021.80
2023-04-18T04:29:15.241Z,1021.81
2023-04-18T04:30:15.253Z,1021.82
2023-04-18T04:31:15.290Z,1021.83
2023-04-18T04:32:15.233Z,1021.86
2023-04-18T04:33:15.317Z,1021.82
2023-04-18T04:34:15.450Z,1021.86
2023-04-18T04:35:15.221Z,1021.86
2023-04-18T04:36:17.299Z,1021.86
2023-04-18T04:37:15.274Z,1021.86
2023-04-18T04:38:15.311Z,1021.86
2023-04-18T04:39:15.196Z,1021.86
2023-04-18T04:40:15.202Z,1021.86
2023-04-18T04:41:15.269Z,1021.85
2023-04-18T04:42:15.211Z,1021.87
2023-04-18T04:43:15.203Z,1021.94
2023-04-18T04:44:15.516Z,1021.95
2023-04-18T04:45:15.174Z,1021.93
2023-04-18T04:46:15.185Z,1021.93
2023-04-18T04:47:15.289Z,1021.94
2023-04-18T04:48:15.175Z,1021.94
2023-04-18T04:49:15.175Z,1021.95
2023-04-18T04:50:15.170Z,1021.94
2023-04-18T04:51:15.154Z,1021.94
2023-04-18T04:52:15.220Z,1021.97
2023-04-18T04:53:15.176Z,1021.95
2023-04-18T04:54:15.355Z,1021.93
2023-04-18T04:55:15.161Z,1021.95
2023-04-18T04:56:15.148Z,1021.94
2023-04-18T04:57:15.187Z,1021.98
2023-04-18T04:58:15.136Z,1021.96
2023-04-18T04:59:15.123Z,1022.00
2023-04-18T05:00:15.124Z,1021.98
2023-04-18T05:01:15.261Z,1021.96
2023-04-18T05:02:15.271Z,1021.99
2023-04-18T05:03:15.364Z,1021.99
2023-04-18T05:04:15.724Z,1021.99
2023-04-18T05:05:15.123Z,1021.97
2023-04-18T05:06:15.108Z,1021.96
2023-04-18T05:07:15.101Z,1021.95
2023-04-18T05:08:15.112Z,1021.96
2023-04-18T05:09:15.081Z,1021.95
2023-04-18T05:10:15.090Z,1021.95
2023-04-18T05:11:15.095Z,1021.92
2023-04-18T05:12:15.143Z,1021.96
2023-04-18T05:13:15.110Z,1021.93
2023-04-18T05:14:15.418Z,1021.90
2023-04-18T05:15:15.104Z,1021.93
2023-04-18T05:16:15.121Z,1021.94
2023-04-18T05:17:15.123Z,1021.98
2023-04-18T05:18:15.058Z,1021.95
2023-04-18T05:19:15.080Z,1021.98
2023-04-18T05:20:15.057Z,1021.93
2023-04-18T05:21:15.056Z,1021.90
2023-04-18T05:22:15.094Z,1021.89
2023-04-18T05:23:15.042Z,1021.88
2023-04-18T05:24:15.257Z,1021.92
2023-04-18T05:25:15.077Z,1021.93
2023-04-18T05:26:15.033Z,1021.94
2023-04-18T05:27:17.111Z,1021.93
2023-04-18T05:28:15.021Z,1021.92
2023-04-18T05:29:15.041Z,1021.93
2023-04-18T05:30:15.021Z,1021.90
2023-04-18T05:31:15.084Z,1021.86
2023-04-18T05:32:15.048Z,1021.91
2023-04-18T05:33:15.002Z,1021.90
2023-04-18T05:34:15.287Z,1021.95
2023-04-18T05:35:15.041Z,1021.97
2023-04-18T05:36:14.992Z,1021.94
2023-04-18T05:37:14.999Z,1022.01
2023-04-18T05:38:15.012Z,1022.06
2023-04-18T05:39:15.072Z,1022.08
2023-04-18T05:40:15.035Z,1022.09
2023-04-18T05:41:14.984Z,1022.13
2023-04-18T05:42:14.994Z,1022.20
2023-04-18T05:43:15.046Z,1022.22
2023-04-18T05:44:15.019Z,1022.25
2023-04-18T05:45:14.975Z,1022.30
2023-04-18T05:46:15.033Z,1022.30
2023-04-18T05:47:15.074Z,1022.34
2023-04-18T05:48:14.975Z,1022.36
2023-04-18T05:49:15.105Z,1022.39
2023-04-18T05:50:14.947Z,1022.38
2023-04-18T05:51:15.068Z,1022.43
2023-04-18T05:52:14.957Z,1022.43
2023-04-18T05:53:15.020Z,1022.45
2023-04-18T05:54:15.078Z,1022.39
2023-04-18T05:55:15.008Z,1022.36
2023-04-18T05:56:14.978Z,1022.35
2023-04-18T05:57:14.928Z,1022.36
2023-04-18T05:58:14.930Z,1022.38
2023-04-18T05:59:14.990Z,1022.36
2023-04-18T06:00:14.965Z,1022.29
2023-04-18T06:01:14.923Z,1022.36
2023-04-18T06:02:15.069Z,1022.29
2023-04-18T06:03:15.151Z,1022.32
2023-04-18T06:04:15.316Z,1022.36
2023-04-18T06:05:15.192Z,1022.37
2023-04-18T06:06:14.915Z,1022.35
2023-04-18T06:07:15.075Z,1022.36
2023-04-18T06:08:14.889Z,1022.38
2023-04-18T06:09:14.908Z,1022.38
2023-04-18T06:10:14.944Z,1022.43
2023-04-18T06:11:14.926Z,1022.47
2023-04-18T06:12:15.008Z,1022.44
2023-04-18T06:13:14.863Z,1022.44
2023-04-18T06:14:15.479Z,1022.35
2023-04-18T06:15:14.871Z,1022.42
2023-04-18T06:16:14.999Z,1022.37
2023-04-18T06:17:14.935Z,1022.40
2023-04-18T06:18:14.859Z,1022.37
2023-04-18T06:19:14.937Z,1022.34
2023-04-18T06:20:14.889Z,1022.33
2023-04-18T06:21:14.872Z,1022.32
2023-04-18T06:22:14.930Z,1022.32
2023-04-18T06:23:15.117Z,1022.32
2023-04-18T06:24:15.205Z,1022.35
2023-04-18T06:25:14.880Z,1022.34
2023-04-18T06:26:14.826Z,1022.34
2023-04-18T06:27:27.837Z,1022.36
2023-04-18T06:28:14.828Z,1022.38
2023-04-18T06:29:14.926Z,1022.38
2023-04-18T06:30:14.845Z,1022.41
2023-04-18T06:31:14.987Z,1022.42
2023-04-18T06:32:14.863Z,1022.44
2023-04-18T06:33:14.818Z,1022.47
2023-04-18T06:34:15.118Z,1022.47
2023-04-18T06:35:14.821Z,1022.48
2023-04-18T06:36:14.856Z,1022.45
2023-04-18T06:37:14.811Z,1022.50
2023-04-18T06:38:14.817Z,1022.48
2023-04-18T06:39:14.945Z,1022.52
2023-04-18T06:40:14.877Z,1022.51
2023-04-18T06:41:14.787Z,1022.52
2023-04-18T06:42:14.779Z,1022.47
2023-04-18T06:43:14.826Z,1022.51
2023-04-18T06:44:14.895Z,1022.51
2023-04-18T06:45:14.753Z,1022.47
2023-04-18T06:46:14.794Z,1022.44
2023-04-18T06:47:14.757Z,1022.47
2023-04-18T06:48:14.758Z,1022.48
2023-04-18T06:49:14.758Z,1022.49
2023-04-18T06:50:14.992Z,1022.47
2023-04-18T06:51:14.791Z,1022.47
2023-04-18T06:52:14.814Z,1022.42
2023-04-18T06:53:14.795Z,1022.47
2023-04-18T06:54:14.929Z,1022.46
2023-04-18T06:55:14.824Z,1022.50
2023-04-18T06:56:14.761Z,1022.57
2023-04-18T06:57:14.812Z,1022.56
2023-04-18T06:58:14.727Z,1022.54
2023-04-18T06:59:14.936Z,1022.59
2023-04-18T07:00:14.716Z,1022.52
2023-04-18T07:01:14.791Z,1022.59
2023-04-18T07:03:47.384Z,1022.61
2023-04-18T07:04:47.385Z,1022.59
2023-04-18T07:05:47.311Z,1022.55
2023-04-18T07:06:47.265Z,1022.59
2023-04-18T07:07:47.263Z,1022.56
2023-04-18T07:08:47.365Z,1022.59
2023-04-18T07:09:47.280Z,1022.57
2023-04-18T07:10:47.276Z,1022.56
2023-04-18T07:11:47.257Z,1022.53
2023-04-18T07:12:47.298Z,1022.56
2023-04-18T07:13:47.285Z,1022.59
2023-04-18T07:14:47.282Z,1022.60
2023-04-18T07:15:47.265Z,1022.58
2023-04-18T07:16:47.276Z,1022.58
2023-04-18T07:17:47.321Z,1022.58
2023-04-18T07:18:47.230Z,1022.55
2023-04-18T07:19:47.329Z,1022.57
2023-04-18T07:20:47.234Z,1022.58
2023-04-18T07:21:47.245Z,1022.61
2023-04-18T07:22:47.272Z,1022.61
2023-04-18T07:23:47.225Z,1022.61
2023-04-18T07:24:47.223Z,1022.61
2023-04-18T07:25:47.208Z,1022.56
2023-04-18T07:26:47.282Z,1022.61
2023-04-18T07:27:47.234Z,1022.61
2023-04-18T07:28:47.209Z,1022.60
2023-04-18T07:29:47.385Z,1022.61
2023-04-18T07:30:48.474Z,1022.64
2023-04-18T07:31:47.323Z,1022.60
2023-04-18T07:32:47.432Z,1022.55
2023-04-18T07:33:47.321Z,1022.59
2023-04-18T07:34:47.373Z,1022.60
2023-04-18T07:35:47.242Z,1022.61
2023-04-18T07:36:47.264Z,1022.62
2023-04-18T07:37:47.326Z,1022.63
2023-04-18T07:38:47.279Z,1022.67
2023-04-18T07:39:47.234Z,1022.61
2023-04-18T07:40:47.191Z,1022.67
2023-04-18T07:41:48.129Z,1022.70
2023-04-18T07:42:47.274Z,1022.63
2023-04-18T07:43:47.202Z,1022.66
2023-04-18T07:44:47.161Z,1022.66
2023-04-18T07:45:47.341Z,1022.62
2023-04-18T07:46:47.373Z,1022.65
2023-04-18T07:47:47.219Z,1022.66
2023-04-18T07:48:47.155Z,1022.65
2023-04-18T07:49:47.222Z,1022.70
2023-04-18T07:50:47.164Z,1022.71
2023-04-18T07:51:47.162Z,1022.74
2023-04-18T07:52:47.277Z,1022.75
2023-04-18T07:53:47.157Z,1022.71
2023-04-18T07:54:47.182Z,1022.77
2023-04-18T07:55:47.280Z,1022.73
2023-04-18T07:56:47.985Z,1022.77
2023-04-18T07:57:47.585Z,1022.80
2023-04-18T07:58:47.186Z,1022.75
2023-04-18T07:59:47.223Z,1022.78
2023-04-18T08:00:47.335Z,1022.83
2023-04-18T08:01:47.134Z,1022.78
2023-04-18T08:02:47.280Z,1022.76
2023-04-18T08:03:47.309Z,1022.78
2023-04-18T08:04:47.383Z,1022.78
2023-04-18T08:05:47.165Z,1022.82
2023-04-18T08:06:47.192Z,1022.80
2023-04-18T08:08:47.116Z,1022.79
2023-04-18T08:09:47.190Z,1022.77
2023-04-18T08:10:47.114Z,1022.76
2023-04-18T08:11:47.141Z,1022.81
2023-04-18T08:12:47.095Z,1022.79
2023-04-18T08:13:47.099Z,1022.82
2023-04-18T08:14:47.181Z,1022.76
2023-04-18T08:15:47.237Z,1022.84
2023-04-18T08:16:47.132Z,1022.80
2023-04-18T08:17:47.124Z,1022.85
2023-04-18T08:18:47.106Z,1022.84
2023-04-18T08:19:47.080Z,1022.84
2023-04-18T08:20:47.160Z,1022.84
2023-04-18T08:21:47.098Z,1022.86
2023-04-18T08:23:05.126Z,1022.85
2023-04-18T08:23:47.142Z,1022.86
2023-04-18T08:25:03.351Z,1022.88
2023-04-18T08:25:47.120Z,1022.87
2023-04-18T08:26:47.077Z,1022.85
2023-04-18T08:27:47.142Z,1022.89
2023-04-18T08:28:47.101Z,1022.88
2023-04-18T08:29:47.081Z,1022.87
2023-04-18T08:30:47.403Z,1022.89
2023-04-18T08:31:47.128Z,1022.88
2023-04-18T08:32:47.276Z,1022.91
2023-04-18T08:34:47.062Z,1022.87
2023-04-18T08:35:47.045Z,1022.88
2023-04-18T08:36:47.052Z,1022.86
2023-04-18T08:37:47.041Z,1022.85
2023-04-18T08:38:47.183Z,1022.87
2023-04-18T08:39:47.245Z,1022.81
2023-04-18T08:40:47.120Z,1022.81
2023-04-18T08:41:47.048Z,1022.82
2023-04-18T08:42:48.983Z,1022.84
2023-04-18T08:43:47.219Z,1022.87
2023-04-18T08:44:47.032Z,1022.84
2023-04-18T08:45:47.095Z,1022.86
2023-04-18T08:46:47.119Z,1022.85
2023-04-18T08:47:47.147Z,1022.86
2023-04-18T08:48:47.033Z,1022.84
2023-04-18T08:49:47.013Z,1022.81
2023-04-18T08:50:47.015Z,1022.85
2023-04-18T08:51:47.021Z,1022.85
2023-04-18T08:52:47.052Z,1022.84
2023-04-18T08:53:47.008Z,1022.90
2023-04-18T08:54:47.023Z,1022.90
2023-04-18T08:55:47.081Z,1022.92
2023-04-18T08:57:47.180Z,1022.89
2023-04-18T08:58:46.992Z,1022.94
2023-04-18T08:59:49.619Z,1022.93
2023-04-18T09:00:46.985Z,1022.96
2023-04-18T09:01:47.097Z,1022.96
2023-04-18T09:02:47.443Z,1022.98
2023-04-18T09:03:47.106Z,1022.93
2023-04-18T09:04:47.040Z,1022.96
2023-04-18T09:05:47.046Z,1022.97
2023-04-18T09:06:46.973Z,1022.97
2023-04-18T09:07:46.990Z,1023.00
2023-04-18T09:08:46.993Z,1022.95
2023-04-18T09:09:47.018Z,1022.96
2023-04-18T09:10:46.991Z,1023.00
2023-04-18T09:11:46.971Z,1022.99
2023-04-18T09:12:46.966Z,1023.04
2023-04-18T09:13:47.015Z,1023.01
2023-04-18T09:14:47.076Z,1023.04
2023-04-18T09:15:46.988Z,1023.04
2023-04-18T09:16:47.084Z,1023.01
2023-04-18T09:17:46.991Z,1023.00
2023-04-18T09:18:47.135Z,1022.99
2023-04-18T09:19:47.668Z,1023.01
2023-04-18T09:20:46.957Z,1023.03
2023-04-18T09:21:46.961Z,1023.03
2023-04-18T09:22:47.305Z,1023.04
2023-04-18T09:23:46.947Z,1023.01
2023-04-18T09:24:47.035Z,1023.02
2023-04-18T09:25:47.061Z,1023.03
2023-04-18T09:26:47.013Z,1022.99
2023-04-18T09:27:47.581Z,1022.98
2023-04-18T09:28:47.056Z,1022.98
2023-04-18T09:29:47.258Z,1023.02
2023-04-18T09:33:19.644Z,1023.07
2023-04-18T09:34:19.687Z,1023.08
2023-04-18T09:35:19.501Z,1023.02
2023-04-18T09:36:19.561Z,1023.06
2023-04-18T09:37:19.544Z,1023.05
2023-04-18T09:38:19.541Z,1023.06
2023-04-18T09:39:19.533Z,1023.04
2023-04-18T09:40:19.490Z,1023.05
2023-04-18T09:41:21.554Z,1023.05
2023-04-18T09:42:19.531Z,1023.07
2023-04-18T09:43:19.530Z,1023.09
2023-04-18T09:44:19.692Z,1023.03
2023-04-18T09:45:19.609Z,1023.06
2023-04-18T09:46:19.535Z,1023.10
2023-04-18T09:47:19.488Z,1023.06
2023-04-18T09:48:19.573Z,1023.04
2023-04-18T09:49:19.558Z,1023.05
2023-04-18T09:50:19.573Z,1023.06
2023-04-18T09:51:19.470Z,1023.11
2023-04-18T09:52:19.618Z,1023.11
2023-04-18T09:53:20.778Z,1023.12
2023-04-18T09:54:19.520Z,1023.09
2023-04-18T09:55:19.495Z,1023.15
2023-04-18T09:56:19.516Z,1023.09
2023-04-18T09:57:19.566Z,1023.11
2023-04-18T09:58:19.715Z,1023.12
2023-04-18T09:59:21.104Z,1023.07
2023-04-18T10:00:19.460Z,1023.11
2023-04-18T10:01:19.521Z,1023.12
2023-04-18T10:02:19.588Z,1023.12
2023-04-18T10:13:37.021Z,1023.03
2023-04-18T10:14:36.880Z,1023.01
2023-04-18T10:15:36.925Z,1023.01
2023-04-18T10:16:37.058Z,1023.02
2023-04-18T10:17:36.891Z,1023.03
2023-04-18T10:18:36.922Z,1023.04
2023-04-18T10:19:36.856Z,1023.06
2023-04-18T10:20:37.260Z,1023.02
2023-04-18T10:21:36.913Z,1023.03
2023-04-18T10:22:36.849Z,1023.01
2023-04-18T10:23:36.869Z,1023.02
2023-04-18T10:24:36.877Z,1023.02
2023-04-18T10:25:36.865Z,1022.97
2023-04-18T10:26:36.836Z,1022.98
2023-04-18T10:27:36.850Z,1022.98
2023-04-18T10:28:37.107Z,1023.01
2023-04-18T10:29:36.865Z,1023.01
2023-04-18T10:30:36.909Z,1022.99
2023-04-18T10:31:36.920Z,1022.96
2023-04-18T10:32:36.855Z,1022.97
2023-04-18T10:33:40.837Z,1022.96
2023-04-18T10:34:39.098Z,1022.97
2023-04-18T10:35:37.034Z,1023.02
2023-04-18T10:36:36.879Z,1023.01
2023-04-18T10:37:36.887Z,1022.98
2023-04-18T10:38:36.855Z,1022.99
2023-04-18T10:39:36.861Z,1022.97
2023-04-18T10:40:36.812Z,1023.01
2023-04-18T10:41:36.825Z,1022.98
2023-04-18T10:42:36.827Z,1022.97
2023-04-18T10:43:36.803Z,1022.94
2023-04-18T10:44:36.825Z,1022.90
2023-04-18T10:45:36.887Z,1022.88
2023-04-18T10:47:36.892Z,1022.85
2023-04-18T10:48:38.557Z,1022.90
2023-04-18T10:49:36.796Z,1022.85
2023-04-18T10:50:36.826Z,1022.89
2023-04-18T10:51:36.872Z,1022.88
2023-04-18T10:52:36.790Z,1022.83
2023-04-18T10:53:36.824Z,1022.87
2023-04-18T10:54:36.787Z,1022.83
2023-04-18T10:55:36.795Z,1022.87
2023-04-18T10:56:36.890Z,1022.84
2023-04-18T10:58:36.899Z,1022.82
2023-04-18T10:59:36.802Z,1022.76
2023-04-18T11:00:36.888Z,1022.80
2023-04-18T11:01:37.107Z,1022.77
2023-04-18T11:02:37.029Z,1022.85
2023-04-18T11:03:36.833Z,1022.79
2023-04-18T11:04:36.872Z,1022.83
2023-04-18T11:05:36.851Z,1022.76
2023-04-18T11:06:36.770Z,1022.80
2023-04-18T11:07:36.783Z,1022.78
2023-04-18T11:08:36.825Z,1022.79
2023-04-18T11:09:36.887Z,1022.80
2023-04-18T11:10:36.771Z,1022.78
2023-04-18T11:11:36.794Z,1022.83
2023-04-18T11:12:36.829Z,1022.77
2023-04-18T11:13:36.936Z,1022.78
2023-04-18T11:14:36.797Z,1022.82
2023-04-18T11:15:36.914Z,1022.79
2023-04-18T11:16:38.714Z,1022.74
2023-04-18T11:17:36.839Z,1022.68
2023-04-18T11:18:36.802Z,1022.72
2023-04-18T11:19:36.838Z,1022.68
2023-04-18T11:20:36.802Z,1022.66
2023-04-18T11:21:36.760Z,1022.58
2023-04-18T11:22:36.800Z,1022.65
2023-04-18T11:23:36.757Z,1022.58
2023-04-18T11:24:36.761Z,1022.61
2023-04-18T11:25:36.852Z,1022.59
2023-04-18T11:26:37.268Z,1022.59
2023-04-18T11:27:37.835Z,1022.55
2023-04-18T11:28:36.823Z,1022.51
2023-04-18T11:29:36.776Z,1022.50
2023-04-18T11:30:36.880Z,1022.46
2023-04-18T11:31:36.786Z,1022.50
2023-04-18T11:32:36.865Z,1022.50
2023-04-18T11:33:36.809Z,1022.46
2023-04-18T11:34:36.821Z,1022.45
2023-04-18T11:35:36.731Z,1022.47
2023-04-18T11:36:36.756Z,1022.47
2023-04-18T11:37:36.746Z,1022.49
2023-04-18T11:38:36.850Z,1022.49
2023-04-18T11:39:36.820Z,1022.47
2023-04-18T11:40:36.849Z,1022.51
2023-04-18T11:41:36.803Z,1022.46
2023-04-18T11:42:36.728Z,1022.48
2023-04-18T11:43:38.655Z,1022.42
2023-04-18T11:44:36.750Z,1022.41
2023-04-18T11:45:36.812Z,1022.43
2023-04-18T11:46:36.851Z,1022.40
2023-04-18T11:47:36.754Z,1022.39
2023-04-18T11:48:36.743Z,1022.38
2023-04-18T11:49:36.793Z,1022.43
2023-04-18T11:50:36.740Z,1022.39
2023-04-18T11:51:36.936Z,1022.44
2023-04-18T11:52:36.772Z,1022.40
2023-04-18T11:53:36.807Z,1022.38
2023-04-18T11:54:36.777Z,1022.42
2023-04-18T11:55:36.836Z,1022.42
2023-04-18T11:56:37.024Z,1022.35
2023-04-18T11:57:36.723Z,1022.38
2023-04-18T11:58:36.871Z,1022.39
2023-04-18T11:59:36.787Z,1022.43
2023-04-18T12:00:36.763Z,1022.40
2023-04-18T12:01:36.786Z,1022.44
2023-04-18T12:02:36.839Z,1022.39
2023-04-18T12:03:37.014Z,1022.40
2023-04-18T12:04:37.091Z,1022.35
2023-04-18T12:05:37.695Z,1022.37
2023-04-18T12:06:36.750Z,1022.38
2023-04-18T12:07:36.829Z,1022.37
2023-04-18T12:08:36.850Z,1022.38
2023-04-18T12:09:36.940Z,1022.44
2023-04-18T12:10:36.801Z,1022.38
2023-04-18T12:11:36.723Z,1022.28
2023-04-18T12:12:36.760Z,1022.36
2023-04-18T12:13:36.784Z,1022.38
2023-04-18T12:14:36.752Z,1022.36
2023-04-18T12:15:36.824Z,1022.34
2023-04-18T12:16:36.816Z,1022.33
2023-04-18T12:17:36.793Z,1022.35
2023-04-18T12:18:36.784Z,1022.33
2023-04-18T12:19:36.830Z,1022.32
2023-04-18T12:20:36.819Z,1022.34
2023-04-18T12:21:36.861Z,1022.34
2023-04-18T12:22:36.744Z,1022.35
2023-04-18T12:23:36.738Z,1022.28
2023-04-18T12:24:36.738Z,1022.34
2023-04-18T12:25:36.753Z,1022.29
2023-04-18T12:26:36.773Z,1022.30
2023-04-18T12:27:36.752Z,1022.25
2023-04-18T12:28:36.763Z,1022.25
2023-04-18T12:29:36.778Z,1022.24
2023-04-18T12:30:37.748Z,1022.21
2023-04-18T12:31:36.782Z,1022.22
2023-04-18T12:32:36.756Z,1022.18
2023-04-18T12:33:37.354Z,1022.19
2023-04-18T12:34:36.773Z,1022.20
2023-04-18T12:36:36.746Z,1022.19
2023-04-18T12:37:36.776Z,1022.24
2023-04-18T12:38:36.738Z,1022.13
2023-04-18T12:39:36.745Z,1022.12
2023-04-18T12:40:36.767Z,1022.15
2023-04-18T12:41:36.790Z,1022.16
2023-04-18T12:42:36.772Z,1022.10
2023-04-18T12:43:36.784Z,1022.11
2023-04-18T12:44:36.771Z,1022.17
2023-04-18T12:45:36.797Z,1022.13
2023-04-18T12:46:36.809Z,1022.06
2023-04-18T12:47:36.837Z,1022.14
2023-04-18T12:48:36.894Z,1022.10
2023-04-18T12:49:36.796Z,1022.06
2023-04-18T12:50:36.813Z,1022.08
2023-04-18T12:51:36.792Z,1022.04
2023-04-18T12:52:36.838Z,1022.09
2023-04-18T12:53:36.849Z,1022.07
2023-04-18T12:54:38.062Z,1022.02
2023-04-18T12:55:36.842Z,1022.02
2023-04-18T12:56:36.836Z,1022.02
2023-04-18T12:57:36.826Z,1022.03
2023-04-18T12:58:36.821Z,1021.99
2023-04-18T12:59:36.821Z,1021.99
2023-04-18T13:00:36.918Z,1021.98
2023-04-18T13:01:36.945Z,1021.96
2023-04-18T13:02:36.960Z,1021.99
2023-04-18T13:03:37.103Z,1021.95
2023-04-18T13:04:37.047Z,1021.99
2023-04-18T13:05:36.915Z,1021.90
2023-04-18T13:06:36.872Z,1021.95
2023-04-18T13:07:36.869Z,1022.00
2023-04-18T13:08:36.883Z,1021.94
2023-04-18T13:09:36.901Z,1021.98
2023-04-18T13:10:36.906Z,1021.92
2023-04-18T13:13:09.543Z,1021.97
2023-04-18T13:14:09.477Z,1021.98
2023-04-18T13:15:09.503Z,1021.93
2023-04-18T13:16:09.550Z,1021.90
2023-04-18T13:17:09.502Z,1022.06
2023-04-18T13:18:09.494Z,1021.98
2023-04-18T13:19:09.474Z,1022.02
2023-04-18T13:20:09.550Z,1021.95
2023-04-18T13:21:09.496Z,1021.93
2023-04-18T13:22:09.472Z,1021.99
2023-04-18T13:23:09.476Z,1022.00
2023-04-18T13:24:09.480Z,1022.01
2023-04-18T13:25:09.573Z,1021.95
2023-04-18T13:26:09.723Z,1021.99
2023-04-18T13:27:09.511Z,1021.98
2023-04-18T13:28:09.584Z,1021.99
2023-04-18T13:29:09.509Z,1021.99
2023-04-18T13:30:09.546Z,1021.93
2023-04-18T13:31:09.523Z,1021.98
2023-04-18T13:32:09.619Z,1021.97
2023-04-18T13:33:09.559Z,1021.96
2023-04-18T13:34:09.551Z,1021.94
2023-04-18T13:35:09.583Z,1022.02
2023-04-18T13:36:09.574Z,1022.02
2023-04-18T13:37:09.605Z,1021.99
2023-04-18T13:38:09.585Z,1022.00
2023-04-18T13:39:09.609Z,1022.00
2023-04-18T13:40:10.153Z,1022.01
2023-04-18T13:41:12.604Z,1021.96
2023-04-18T13:42:09.588Z,1021.93
2023-04-18T13:43:09.620Z,1021.96
2023-04-18T13:44:09.616Z,1022.01
2023-04-18T13:45:09.579Z,1021.98
2023-04-18T13:46:09.714Z,1022.07
2023-04-18T13:47:09.747Z,1022.07
2023-04-18T13:48:09.625Z,1022.06
2023-04-18T13:49:09.612Z,1022.07
2023-04-18T13:50:09.689Z,1022.04
2023-04-18T13:51:09.576Z,1022.11
2023-04-18T13:52:09.581Z,1022.07
2023-04-18T13:53:09.572Z,1022.04
2023-04-18T13:54:09.574Z,1022.05
2023-04-18T13:55:09.552Z,1021.99
2023-04-18T13:56:09.555Z,1022.04
2023-04-18T13:57:09.597Z,1021.99
2023-04-18T13:58:09.947Z,1022.06
2023-04-18T13:59:09.567Z,1022.01
2023-04-18T14:00:09.615Z,1022.01
2023-04-18T14:01:09.606Z,1022.04
2023-04-18T14:02:09.689Z,1022.07
2023-04-18T14:03:09.677Z,1022.06
2023-04-18T14:04:09.683Z,1022.04
2023-04-18T14:05:09.599Z,1022.00
2023-04-18T14:06:09.577Z,1022.04
2023-04-18T14:07:09.556Z,1022.04
2023-04-18T14:08:09.565Z,1022.02
2023-04-18T14:09:09.593Z,1022.02
2023-04-18T14:10:09.614Z,1022.00
2023-04-18T14:11:09.610Z,1022.03
2023-04-18T14:12:09.550Z,1022.03
2023-04-18T14:13:09.578Z,1022.03
2023-04-18T14:14:09.572Z,1022.04
2023-04-18T14:15:09.585Z,1021.96
2023-04-18T14:16:09.622Z,1022.04
2023-04-18T14:17:09.556Z,1021.93
2023-04-18T14:18:09.600Z,1021.95
2023-04-18T14:19:09.564Z,1021.99
2023-04-18T14:20:09.649Z,1022.00
2023-04-18T14:21:09.560Z,1021.97
2023-04-18T14:22:09.557Z,1021.98
2023-04-18T14:23:09.594Z,1021.96
2023-04-18T14:24:09.604Z,1021.98
2023-04-18T14:25:09.587Z,1022.02
2023-04-18T14:26:09.562Z,1021.92
2023-04-18T14:27:09.566Z,1021.98
2023-04-18T14:28:09.688Z,1021.96
2023-04-18T14:29:09.619Z,1021.93
2023-04-18T14:30:09.559Z,1021.89
2023-04-18T14:31:09.590Z,1021.85
2023-04-18T14:32:09.554Z,1021.85
2023-04-18T14:33:09.877Z,1021.87
2023-04-18T14:34:09.621Z,1021.87
2023-04-18T14:35:09.575Z,1021.90
2023-04-18T14:36:09.582Z,1021.89
2023-04-18T14:37:09.559Z,1021.91
2023-04-18T14:38:09.568Z,1021.92
2023-04-18T14:39:09.577Z,1021.90
2023-04-18T14:40:09.598Z,1021.90
2023-04-18T14:41:09.590Z,1021.97
2023-04-18T14:42:09.598Z,1021.93
2023-04-18T14:43:09.591Z,1022.00
2023-04-18T14:44:09.570Z,1021.93
2023-04-18T14:45:09.608Z,1021.99
2023-04-18T14:46:09.591Z,1021.92
2023-04-18T14:47:09.633Z,1021.95
2023-04-18T14:48:10.197Z,1021.91
2023-04-18T14:49:09.594Z,1021.86
2023-04-18T14:50:09.600Z,1021.89
2023-04-18T14:51:09.586Z,1021.87
2023-04-18T14:52:09.581Z,1021.90
2023-04-18T14:53:09.582Z,1021.85
2023-04-18T14:54:09.617Z,1021.92
2023-04-18T14:55:09.627Z,1021.83
2023-04-18T14:56:09.587Z,1021.81
2023-04-18T14:57:09.625Z,1021.84
2023-04-18T14:58:09.591Z,1021.83
2023-04-18T14:59:09.673Z,1021.84
2023-04-18T15:00:09.638Z,1021.83
2023-04-18T15:01:09.649Z,1021.81
2023-04-18T15:02:09.709Z,1021.84
2023-04-18T15:03:11.374Z,1021.83
2023-04-18T15:04:09.818Z,1021.83
2023-04-18T15:05:09.773Z,1021.86
2023-04-18T15:06:09.617Z,1021.80
2023-04-18T15:07:09.665Z,1021.79
2023-04-18T15:08:09.634Z,1021.85
2023-04-18T15:09:09.644Z,1021.81
2023-04-18T15:10:09.638Z,1021.77
2023-04-18T15:11:09.654Z,1021.75
2023-04-18T15:12:09.642Z,1021.74
2023-04-18T15:13:09.658Z,1021.70
2023-04-18T15:14:09.656Z,1021.71
2023-04-18T15:15:09.670Z,1021.69
2023-04-18T15:16:09.707Z,1021.73
2023-04-18T15:17:09.872Z,1021.72
2023-04-18T15:18:09.731Z,1021.69
2023-04-18T15:19:09.684Z,1021.72
2023-04-18T15:20:09.687Z,1021.70
2023-04-18T15:21:09.684Z,1021.68
2023-04-18T15:22:09.676Z,1021.71
2023-04-18T15:23:09.679Z,1021.69
2023-04-18T15:24:09.689Z,1021.68
2023-04-18T15:25:09.694Z,1021.69
2023-04-18T15:26:09.732Z,1021.67
2023-04-18T15:27:09.722Z,1021.74
2023-04-18T15:28:09.726Z,1021.74
2023-04-18T15:29:09.729Z,1021.76
2023-04-18T15:30:09.713Z,1021.77
2023-04-18T15:31:09.761Z,1021.77
2023-04-18T15:32:09.769Z,1021.74
2023-04-18T15:33:09.760Z,1021.79
2023-04-18T15:34:09.739Z,1021.79
2023-04-18T15:35:09.737Z,1021.74
2023-04-18T15:36:09.788Z,1021.76
2023-04-18T15:37:09.745Z,1021.77
2023-04-18T15:38:09.791Z,1021.78
2023-04-18T15:39:09.744Z,1021.72
2023-04-18T15:40:09.802Z,1021.77
2023-04-18T15:41:09.749Z,1021.78
2023-04-18T15:42:09.763Z,1021.80
2023-04-18T15:43:09.739Z,1021.76
2023-04-18T15:44:09.773Z,1021.77
2023-04-18T15:45:09.753Z,1021.78
2023-04-18T15:46:09.806Z,1021.79
2023-04-18T15:47:09.757Z,1021.84
2023-04-18T15:48:09.805Z,1021.85
2023-04-18T15:49:09.935Z,1021.88
2023-04-18T15:50:09.794Z,1021.80
2023-04-18T15:51:09.813Z,1021.84
2023-04-18T15:52:09.803Z,1021.86
2023-04-18T15:53:09.787Z,1021.84
2023-04-18T15:54:09.800Z,1021.81
2023-04-18T15:55:09.934Z,1021.86
2023-04-18T15:57:42.389Z,1021.85
2023-04-18T15:58:42.350Z,1021.82
2023-04-18T15:59:42.379Z,1021.86
2023-04-18T16:00:42.370Z,1021.80
2023-04-18T16:12:44.040Z,1021.80
2023-04-18T16:13:43.983Z,1021.79
2023-04-18T16:14:43.959Z,1021.82
2023-04-18T16:15:44.007Z,1021.85
2023-04-18T16:16:43.941Z,1021.84
2023-04-18T16:17:44.014Z,1021.83
2023-04-18T16:18:43.963Z,1021.84
2023-04-18T16:19:43.935Z,1021.84
2023-04-18T16:20:43.937Z,1021.86
2023-04-18T16:21:43.934Z,1021.86
2023-04-18T16:22:43.944Z,1021.88
2023-04-18T16:23:43.948Z,1021.88
2023-04-18T16:24:43.954Z,1021.84
2023-04-18T16:25:43.936Z,1021.84
2023-04-18T16:26:43.927Z,1021.81
2023-04-18T16:27:43.942Z,1021.82
2023-04-18T16:28:43.939Z,1021.82
2023-04-18T16:29:43.968Z,1021.81
2023-04-18T16:30:43.941Z,1021.85
2023-04-18T16:31:43.930Z,1021.82
2023-04-18T16:32:44.041Z,1021.80
2023-04-18T16:33:43.956Z,1021.79
2023-04-18T16:34:43.942Z,1021.81
2023-04-18T16:35:43.945Z,1021.82
2023-04-18T16:36:43.904Z,1021.81
2023-04-18T16:37:43.928Z,1021.77
2023-04-18T16:38:43.944Z,1021.80